createdAt,value
2022-12-23T20:15:15.309Z,95.70
2022-12-23T20:15:51.463Z,95.90
2022-12-23T20:16:26.467Z,95.80
2022-12-23T20:17:01.772Z,95.80
2022-12-23T20:17:36.854Z,95.80
2022-12-23T20:18:10.755Z,95.90
2022-12-23T20:18:47.864Z,96.10
2022-12-23T20:19:22.824Z,95.90
2022-12-23T20:19:59.292Z,95.90
2022-12-23T20:20:33.538Z,95.80
2022-12-23T20:21:08.500Z,95.80
2022-12-23T20:21:46.039Z,95.80
2022-12-23T20:22:20.966Z,95.90
2022-12-23T20:22:56.543Z,95.80
2022-12-23T20:23:35.900Z,95.80
2022-12-23T20:24:12.068Z,95.80
2022-12-23T20:24:45.875Z,95.80
2022-12-23T20:25:20.241Z,95.80
2022-12-23T20:25:56.341Z,95.80
2022-12-23T20:26:30.442Z,95.80
2022-12-23T20:27:11.241Z,95.90
2022-12-23T20:27:47.041Z,95.90
2022-12-23T20:28:21.137Z,95.90
2022-12-23T20:28:56.243Z,95.90
2022-12-23T20:29:30.070Z,95.90
2022-12-23T20:30:06.306Z,95.90
2022-12-23T20:30:43.141Z,95.90
2022-12-23T20:31:19.929Z,96.10
2022-12-23T20:31:55.220Z,95.80
2022-12-23T20:32:29.654Z,95.90
2022-12-23T20:33:04.460Z,95.90
2022-12-23T20:33:40.295Z,95.90
2022-12-23T20:34:17.995Z,95.90
2022-12-23T20:34:52.853Z,95.90
2022-12-23T20:35:28.301Z,96.00
2022-12-23T20:36:03.460Z,96.00
2022-12-23T20:36:38.202Z,96.00
2022-12-23T20:37:15.982Z,96.00
2022-12-23T20:37:51.036Z,95.90
2022-12-23T20:38:26.059Z,95.90
2022-12-23T20:39:04.208Z,95.90
2022-12-23T20:39:39.270Z,95.90
2022-12-23T20:40:16.503Z,96.20
2022-12-23T20:40:51.988Z,96.00
2022-12-23T20:41:28.099Z,96.00
2022-12-23T20:42:04.810Z,96.10
2022-12-23T20:42:40.365Z,96.00
2022-12-23T20:43:15.494Z,96.00
2022-12-23T20:44:15.735Z,95.90
2022-12-23T20:44:47.240Z,95.90
2022-12-23T20:45:21.701Z,95.80
2022-12-23T20:45:56.735Z,95.80
2022-12-23T20:46:33.102Z,95.80
2022-12-23T20:47:07.858Z,95.80
2022-12-23T20:47:42.734Z,95.90
2022-12-23T20:48:24.906Z,95.80
2022-12-23T20:49:03.109Z,95.80
2022-12-23T20:49:39.607Z,95.80
2022-12-23T20:50:13.928Z,95.80
2022-12-23T20:50:48.935Z,95.80
2022-12-23T20:51:26.932Z,95.90
2022-12-23T20:52:02.141Z,95.90
2022-12-23T20:52:36.906Z,95.80
2022-12-23T20:53:11.786Z,95.90
2022-12-23T20:53:46.619Z,95.90
2022-12-23T20:54:32.005Z,95.90
2022-12-23T20:55:09.182Z,95.90
2022-12-23T20:55:44.318Z,95.90
2022-12-23T20:56:20.442Z,95.80
2022-12-23T20:56:55.325Z,95.70
2022-12-23T20:57:30.105Z,95.80
2022-12-23T20:58:19.368Z,95.80
2022-12-23T20:58:56.651Z,95.90
2022-12-23T20:59:33.332Z,95.80
2022-12-23T21:00:10.719Z,95.90
2022-12-23T21:00:45.272Z,95.80
2022-12-23T21:01:21.435Z,95.80
2022-12-23T21:01:57.275Z,95.70
2022-12-23T21:02:39.203Z,95.80
2022-12-23T21:03:14.621Z,95.80
2022-12-23T21:03:49.431Z,95.70
2022-12-23T21:04:25.679Z,95.60
2022-12-23T21:05:00.782Z,95.60
2022-12-23T21:05:36.444Z,95.60
2022-12-23T21:06:12.957Z,95.60
2022-12-23T21:06:46.998Z,95.60
2022-12-23T21:07:20.786Z,95.60
2022-12-23T21:07:57.224Z,95.50
2022-12-23T21:08:31.630Z,95.60
2022-12-23T21:09:09.413Z,95.60
2022-12-23T21:09:44.865Z,95.60
2022-12-23T21:10:20.345Z,95.60
2022-12-23T21:10:57.408Z,95.60
2022-12-23T21:11:31.648Z,95.50
2022-12-23T21:12:08.330Z,95.50
2022-12-23T21:12:42.477Z,95.50
2022-12-23T21:13:17.485Z,95.60
2022-12-23T21:13:54.413Z,95.60
2022-12-23T21:14:29.534Z,95.60
2022-12-23T21:15:05.913Z,95.60
2022-12-23T21:15:40.750Z,95.60
2022-12-23T21:16:15.177Z,95.60
2022-12-23T21:16:51.046Z,95.50
2022-12-23T21:17:26.866Z,95.50
2022-12-23T21:18:01.471Z,95.50
2022-12-23T21:18:37.975Z,95.50
2022-12-23T21:19:16.639Z,95.50
2022-12-23T21:19:52.131Z,95.40
2022-12-23T21:20:26.125Z,95.40
2022-12-23T21:21:02.650Z,95.30
2022-12-23T21:21:38.712Z,95.40
2022-12-23T21:22:12.612Z,95.70
2022-12-23T21:22:48.957Z,95.50
2022-12-23T21:23:23.352Z,95.50
2022-12-23T21:24:05.140Z,95.40
2022-12-23T21:24:40.897Z,95.40
2022-12-23T21:25:22.014Z,95.50
2022-12-23T21:26:08.222Z,95.40
2022-12-23T21:26:43.896Z,95.40
2022-12-23T21:27:18.367Z,95.40
2022-12-23T21:27:53.483Z,95.40
2022-12-23T21:28:28.478Z,95.30
2022-12-23T21:29:05.281Z,95.30
2022-12-23T21:29:40.779Z,95.30
2022-12-23T21:30:15.897Z,95.30
2022-12-23T21:30:50.077Z,95.20
2022-12-23T21:31:26.102Z,95.20
2022-12-23T21:32:01.273Z,95.20
2022-12-23T21:32:36.619Z,95.20
2022-12-23T21:33:11.786Z,95.20
2022-12-23T21:33:48.363Z,95.20
2022-12-23T21:34:24.602Z,95.10
2022-12-23T21:35:02.206Z,95.00
2022-12-23T21:35:38.909Z,95.00
2022-12-23T21:36:20.286Z,95.00
2022-12-23T21:36:55.756Z,95.00
2022-12-23T21:37:31.538Z,95.10
2022-12-23T21:38:05.412Z,95.00
2022-12-23T21:38:42.094Z,95.00
2022-12-23T21:39:18.785Z,95.10
2022-12-23T21:39:52.770Z,95.00
2022-12-23T21:40:28.261Z,95.00
2022-12-23T21:41:04.349Z,95.00
2022-12-23T21:41:39.720Z,94.90
2022-12-23T21:42:16.444Z,95.00
2022-12-23T21:42:51.175Z,95.00
2022-12-23T21:43:26.806Z,95.00
2022-12-23T21:44:03.247Z,94.90
2022-12-23T21:44:37.656Z,94.90
2022-12-23T21:45:12.797Z,94.80
2022-12-23T21:45:48.535Z,94.80
2022-12-23T21:46:24.885Z,94.90
2022-12-23T21:47:00.318Z,94.90
2022-12-23T21:47:35.794Z,95.00
2022-12-23T21:48:14.748Z,95.00
2022-12-23T21:48:51.710Z,94.90
2022-12-23T21:49:25.716Z,94.90
2022-12-23T21:50:02.297Z,94.90
2022-12-23T21:50:36.259Z,94.80
2022-12-23T21:51:13.754Z,94.80
2022-12-23T21:51:49.590Z,94.70
2022-12-23T21:52:26.493Z,94.70
2022-12-23T21:53:00.954Z,94.70
2022-12-23T21:53:36.805Z,94.70
2022-12-23T21:54:11.766Z,94.70
2022-12-23T21:54:46.268Z,94.70
2022-12-23T21:55:21.712Z,94.70
2022-12-23T21:56:01.761Z,94.80
2022-12-23T21:56:37.308Z,94.80
2022-12-23T21:57:12.923Z,94.70
2022-12-23T21:57:48.123Z,94.70
2022-12-23T21:58:25.297Z,94.70
2022-12-23T21:59:00.379Z,94.70
2022-12-23T21:59:36.197Z,94.70
2022-12-23T22:00:14.047Z,94.80
2022-12-23T22:00:48.654Z,94.70
2022-12-23T22:01:24.492Z,94.80
2022-12-23T22:01:59.715Z,94.70
2022-12-23T22:02:36.414Z,94.70
2022-12-23T22:03:12.097Z,94.70
2022-12-23T22:03:47.486Z,94.70
2022-12-23T22:04:23.594Z,94.60
2022-12-23T22:04:58.601Z,94.60
2022-12-23T22:05:32.516Z,94.70
2022-12-23T22:06:10.473Z,94.70
2022-12-23T22:06:46.252Z,94.80
2022-12-23T22:07:23.113Z,94.80
2022-12-23T22:07:57.334Z,94.80
2022-12-23T22:08:32.289Z,94.80
2022-12-23T22:09:09.583Z,94.70
2022-12-23T22:09:44.292Z,94.70
2022-12-23T22:10:19.454Z,94.70
2022-12-23T22:10:55.781Z,94.70
2022-12-23T22:11:34.182Z,94.70
2022-12-23T22:12:08.271Z,94.60
2022-12-23T22:12:43.861Z,94.60
2022-12-23T22:13:18.310Z,94.60
2022-12-23T22:13:53.635Z,94.70
2022-12-23T22:14:29.449Z,94.70
2022-12-23T22:15:09.641Z,94.70
2022-12-23T22:15:45.214Z,94.60
2022-12-23T22:16:23.002Z,94.70
2022-12-23T22:16:58.195Z,94.70
2022-12-23T22:17:32.950Z,94.80
2022-12-23T22:18:09.400Z,94.70
2022-12-23T22:18:44.260Z,94.80
2022-12-23T22:19:20.540Z,94.80
2022-12-23T22:19:55.048Z,94.80
2022-12-23T22:20:29.921Z,94.80
2022-12-23T22:21:08.152Z,94.80
2022-12-23T22:21:43.354Z,94.80
2022-12-23T22:22:18.410Z,94.80
2022-12-23T22:22:52.895Z,94.80
2022-12-23T22:23:26.769Z,94.80
2022-12-23T22:24:12.512Z,94.80
2022-12-23T22:24:47.382Z,94.90
2022-12-23T22:25:24.298Z,94.90
2022-12-23T22:26:00.624Z,95.00
2022-12-23T22:26:36.028Z,95.00
2022-12-23T22:27:10.460Z,95.10
2022-12-23T22:27:51.039Z,95.10
2022-12-23T22:28:24.525Z,95.10
2022-12-23T22:29:00.260Z,95.10
2022-12-23T22:29:36.442Z,95.10
2022-12-23T22:30:10.875Z,95.10
2022-12-23T22:30:47.897Z,95.10
2022-12-23T22:31:31.376Z,95.10
2022-12-23T22:32:07.705Z,95.20
2022-12-23T22:32:42.936Z,95.20
2022-12-23T22:33:18.972Z,95.20
2022-12-23T22:33:53.440Z,95.20
2022-12-23T22:34:28.804Z,95.20
2022-12-23T22:35:03.145Z,95.20
2022-12-23T22:35:37.460Z,95.20
2022-12-23T22:36:14.761Z,95.20
2022-12-23T22:36:52.424Z,95.20
2022-12-23T22:37:28.548Z,95.20
2022-12-23T22:38:03.509Z,95.20
2022-12-23T22:38:37.893Z,95.20
2022-12-23T22:39:20.052Z,95.20
2022-12-23T22:39:55.210Z,95.30
2022-12-23T22:40:30.976Z,95.30
2022-12-23T22:41:07.301Z,95.30
2022-12-23T22:41:43.367Z,95.30
2022-12-23T22:42:18.928Z,95.40
2022-12-23T22:42:53.904Z,95.40
2022-12-23T22:43:27.173Z,95.50
2022-12-23T22:44:02.867Z,95.60
2022-12-23T22:44:36.897Z,95.60
2022-12-23T22:45:14.028Z,95.60
2022-12-23T22:45:48.961Z,95.60
2022-12-23T22:46:25.101Z,95.50
2022-12-23T22:47:02.100Z,95.50
2022-12-23T22:47:36.735Z,95.50
2022-12-23T22:48:11.667Z,95.50
2022-12-23T22:48:50.956Z,95.50
2022-12-23T22:49:26.350Z,95.50
2022-12-23T22:50:03.590Z,95.50
2022-12-23T22:50:38.296Z,95.40
2022-12-23T22:51:15.853Z,95.40
2022-12-23T22:51:52.268Z,95.40
2022-12-23T22:52:27.000Z,95.40
2022-12-23T22:53:02.076Z,95.40
2022-12-23T22:53:37.704Z,95.30
2022-12-23T22:54:12.463Z,95.40
2022-12-23T22:54:50.384Z,95.40
2022-12-23T22:55:24.773Z,95.60
2022-12-23T22:55:59.784Z,95.40
2022-12-23T22:56:35.618Z,95.30
2022-12-23T22:57:12.441Z,95.30
2022-12-23T22:57:49.076Z,95.30
2022-12-23T22:58:26.047Z,95.20
2022-12-23T22:59:01.523Z,95.20
2022-12-23T22:59:35.638Z,95.10
2022-12-23T23:00:13.247Z,95.10
2022-12-23T23:00:48.893Z,95.10
2022-12-23T23:01:25.969Z,95.10
2022-12-23T23:02:02.371Z,95.10
2022-12-23T23:02:37.320Z,95.10
2022-12-23T23:03:13.208Z,95.10
2022-12-23T23:03:48.891Z,95.10
2022-12-23T23:04:23.921Z,95.10
2022-12-23T23:04:57.508Z,95.40
2022-12-23T23:05:32.464Z,95.10
2022-12-23T23:06:07.511Z,95.10
2022-12-23T23:06:46.048Z,95.10
2022-12-23T23:07:21.910Z,95.00
2022-12-23T23:07:56.414Z,95.00
2022-12-23T23:08:31.120Z,94.90
2022-12-23T23:09:08.498Z,94.90
2022-12-23T23:09:44.317Z,94.90
2022-12-23T23:10:20.616Z,94.90
2022-12-23T23:10:56.791Z,94.80
2022-12-23T23:11:31.706Z,94.80
2022-12-23T23:12:08.071Z,94.80
2022-12-23T23:12:44.820Z,94.80
2022-12-23T23:13:19.436Z,94.80
2022-12-23T23:13:55.031Z,94.90
2022-12-23T23:14:51.065Z,94.90
2022-12-23T23:15:26.602Z,94.80
2022-12-23T23:16:00.694Z,94.90
2022-12-23T23:16:34.738Z,94.80
2022-12-23T23:17:11.049Z,94.90
2022-12-23T23:17:46.673Z,94.90
2022-12-23T23:18:20.920Z,94.80
2022-12-23T23:19:00.618Z,94.90
2022-12-23T23:19:35.593Z,94.90
2022-12-23T23:20:10.404Z,94.90
2022-12-23T23:20:44.986Z,94.90
2022-12-23T23:21:19.787Z,94.90
2022-12-23T23:21:56.309Z,94.90
2022-12-23T23:22:31.832Z,94.90
2022-12-23T23:23:06.966Z,94.90
2022-12-23T23:23:41.454Z,94.90
2022-12-23T23:24:17.864Z,94.90
2022-12-23T23:24:52.830Z,94.90
2022-12-23T23:25:27.596Z,94.90
2022-12-23T23:26:03.428Z,94.90
2022-12-23T23:26:36.774Z,94.90
2022-12-23T23:27:11.480Z,94.80
2022-12-23T23:27:48.571Z,94.80
2022-12-23T23:28:24.702Z,94.80
2022-12-23T23:28:59.211Z,94.80
2022-12-23T23:29:34.467Z,94.80
2022-12-23T23:30:11.308Z,94.80
2022-12-23T23:30:45.801Z,94.80
2022-12-23T23:32:14.720Z,94.80
2022-12-23T23:32:49.893Z,94.80
2022-12-23T23:33:25.474Z,94.80
2022-12-23T23:33:59.662Z,94.80
2022-12-23T23:34:34.333Z,94.80
2022-12-23T23:35:10.919Z,94.80
2022-12-23T23:35:47.385Z,94.80
2022-12-23T23:36:24.035Z,94.80
2022-12-23T23:37:00.292Z,94.90
2022-12-23T23:37:34.487Z,94.90
2022-12-23T23:38:07.977Z,94.80
2022-12-23T23:38:43.832Z,94.90
2022-12-23T23:39:18.301Z,94.90
2022-12-23T23:39:52.950Z,94.90
2022-12-23T23:40:29.401Z,94.90
2022-12-23T23:41:04.379Z,94.90
2022-12-23T23:41:39.129Z,94.90
2022-12-23T23:42:17.490Z,94.90
2022-12-23T23:42:54.038Z,94.90
2022-12-23T23:43:28.094Z,94.90
2022-12-23T23:44:03.029Z,95.00
2022-12-23T23:44:37.922Z,95.00
2022-12-23T23:45:13.473Z,95.00
2022-12-23T23:45:48.824Z,95.00
2022-12-23T23:46:23.331Z,95.00
2022-12-23T23:46:57.492Z,95.00
2022-12-23T23:47:34.960Z,95.00
2022-12-23T23:48:10.955Z,95.00
2022-12-23T23:48:47.109Z,95.00
2022-12-23T23:49:24.313Z,95.00
2022-12-23T23:49:59.523Z,95.00
2022-12-23T23:50:33.083Z,95.00
2022-12-23T23:51:08.844Z,95.10
2022-12-23T23:51:43.271Z,95.00
2022-12-23T23:52:18.261Z,95.10
2022-12-23T23:52:53.157Z,95.10
2022-12-23T23:53:29.336Z,95.10
2022-12-23T23:54:03.918Z,95.10
2022-12-23T23:54:39.508Z,95.10
2022-12-23T23:55:14.767Z,95.20
2022-12-23T23:55:50.367Z,95.20
2022-12-23T23:56:26.705Z,95.20
2022-12-23T23:57:02.482Z,95.20
2022-12-23T23:57:36.450Z,95.20
2022-12-23T23:58:14.471Z,95.20
2022-12-23T23:58:50.316Z,95.20
2022-12-23T23:59:26.103Z,95.20
